sensor_id;sensor_type;location;lat;lon;timestamp;P1;durP1;ratioP1;P2;durP2;ratioP2
15153;SDS011;7677;41.896;25.004;2023-08-31T00:00:08;3.80;;;2.65;;
15153;SDS011;7677;41.896;25.004;2023-08-31T00:02:37;5.00;;;3.13;;
15153;SDS011;7677;41.896;25.004;2023-08-31T00:05:05;3.00;;;2.55;;
15153;SDS011;7677;41.896;25.004;2023-08-31T00:07:32;4.97;;;2.80;;
15153;SDS011;7677;41.896;25.004;2023-08-31T00:09:59;4.07;;;2.78;;
15153;SDS011;7677;41.896;25.004;2023-08-31T00:12:31;4.03;;;3.05;;
15153;SDS011;7677;41.896;25.004;2023-08-31T00:14:58;5.43;;;2.65;;
15153;SDS011;7677;41.896;25.004;2023-08-31T00:17:26;3.30;;;2.42;;
15153;SDS011;7677;41.896;25.004;2023-08-31T00:19:53;6.25;;;2.83;;
15153;SDS011;7677;41.896;25.004;2023-08-31T00:22:20;3.55;;;2.42;;
15153;SDS011;7677;41.896;25.004;2023-08-31T00:24:47;6.05;;;3.30;;
15153;SDS011;7677;41.896;25.004;2023-08-31T00:27:16;5.60;;;3.10;;
15153;SDS011;7677;41.896;25.004;2023-08-31T00:29:43;4.03;;;2.83;;
15153;SDS011;7677;41.896;25.004;2023-08-31T00:32:11;2.92;;;2.45;;
15153;SDS011;7677;41.896;25.004;2023-08-31T00:34:40;2.53;;;2.30;;
15153;SDS011;7677;41.896;25.004;2023-08-31T00:37:07;6.18;;;2.97;;
15153;SDS011;7677;41.896;25.004;2023-08-31T00:39:34;5.35;;;2.70;;
15153;SDS011;7677;41.896;25.004;2023-08-31T00:42:01;3.60;;;2.88;;
15153;SDS011;7677;41.896;25.004;2023-08-31T00:44:28;4.10;;;2.72;;
15153;SDS011;7677;41.896;25.004;2023-08-31T00:46:55;2.63;;;2.33;;
15153;SDS011;7677;41.896;25.004;2023-08-31T00:49:22;5.13;;;2.90;;
15153;SDS011;7677;41.896;25.004;2023-08-31T00:51:51;2.78;;;2.22;;
15153;SDS011;7677;41.896;25.004;2023-08-31T00:54:18;2.47;;;2.28;;
15153;SDS011;7677;41.896;25.004;2023-08-31T00:56:46;3.10;;;2.53;;
15153;SDS011;7677;41.896;25.004;2023-08-31T00:59:13;9.50;;;3.10;;
15153;SDS011;7677;41.896;25.004;2023-08-31T01:01:42;6.25;;;3.22;;
15153;SDS011;7677;41.896;25.004;2023-08-31T01:04:16;4.85;;;2.90;;
15153;SDS011;7677;41.896;25.004;2023-08-31T01:06:50;4.43;;;2.92;;
15153;SDS011;7677;41.896;25.004;2023-08-31T01:09:24;4.70;;;2.92;;
15153;SDS011;7677;41.896;25.004;2023-08-31T01:11:57;4.47;;;2.83;;
15153;SDS011;7677;41.896;25.004;2023-08-31T01:14:31;3.42;;;2.90;;
15153;SDS011;7677;41.896;25.004;2023-08-31T01:17:03;4.38;;;2.78;;
15153;SDS011;7677;41.896;25.004;2023-08-31T01:19:34;5.65;;;2.80;;
15153;SDS011;7677;41.896;25.004;2023-08-31T01:22:11;3.53;;;2.70;;
15153;SDS011;7677;41.896;25.004;2023-08-31T01:24:41;4.60;;;2.83;;
15153;SDS011;7677;41.896;25.004;2023-08-31T01:27:08;4.70;;;2.70;;
15153;SDS011;7677;41.896;25.004;2023-08-31T01:29:36;4.10;;;2.97;;
15153;SDS011;7677;41.896;25.004;2023-08-31T01:32:05;4.55;;;2.67;;
15153;SDS011;7677;41.896;25.004;2023-08-31T01:34:32;4.85;;;2.72;;
15153;SDS011;7677;41.896;25.004;2023-08-31T01:37:00;4.97;;;2.85;;
15153;SDS011;7677;41.896;25.004;2023-08-31T01:39:35;3.38;;;2.65;;
15153;SDS011;7677;41.896;25.004;2023-08-31T01:42:10;3.30;;;2.53;;
15153;SDS011;7677;41.896;25.004;2023-08-31T01:44:39;4.40;;;2.67;;
15153;SDS011;7677;41.896;25.004;2023-08-31T01:47:06;6.10;;;2.60;;
15153;SDS011;7677;41.896;25.004;2023-08-31T01:49:37;4.68;;;2.92;;
15153;SDS011;7677;41.896;25.004;2023-08-31T01:52:04;3.17;;;2.35;;
15153;SDS011;7677;41.896;25.004;2023-08-31T01:54:33;5.78;;;2.95;;
15153;SDS011;7677;41.896;25.004;2023-08-31T01:57:02;4.10;;;2.70;;
15153;SDS011;7677;41.896;25.004;2023-08-31T01:59:32;4.95;;;2.63;;
15153;SDS011;7677;41.896;25.004;2023-08-31T02:01:59;5.05;;;3.20;;
15153;SDS011;7677;41.896;25.004;2023-08-31T02:04:26;3.65;;;2.83;;
15153;SDS011;7677;41.896;25.004;2023-08-31T02:06:53;4.47;;;2.65;;
15153;SDS011;7677;41.896;25.004;2023-08-31T02:09:20;4.38;;;2.97;;
15153;SDS011;7677;41.896;25.004;2023-08-31T02:11:47;4.53;;;2.83;;
15153;SDS011;7677;41.896;25.004;2023-08-31T02:14:14;4.93;;;2.53;;
15153;SDS011;7677;41.896;25.004;2023-08-31T02:16:43;5.22;;;2.83;;
15153;SDS011;7677;41.896;25.004;2023-08-31T02:19:10;3.88;;;2.85;;
15153;SDS011;7677;41.896;25.004;2023-08-31T02:21:37;3.13;;;2.65;;
15153;SDS011;7677;41.896;25.004;2023-08-31T02:24:04;4.07;;;2.53;;
15153;SDS011;7677;41.896;25.004;2023-08-31T02:26:32;3.95;;;2.10;;
15153;SDS011;7677;41.896;25.004;2023-08-31T02:29:01;5.00;;;2.60;;
15153;SDS011;7677;41.896;25.004;2023-08-31T02:31:28;4.72;;;2.60;;
15153;SDS011;7677;41.896;25.004;2023-08-31T02:33:56;4.55;;;3.13;;
15153;SDS011;7677;41.896;25.004;2023-08-31T02:36:23;5.15;;;2.70;;
15153;SDS011;7677;41.896;25.004;2023-08-31T02:38:50;5.78;;;2.67;;
15153;SDS011;7677;41.896;25.004;2023-08-31T02:41:18;5.07;;;2.53;;
15153;SDS011;7677;41.896;25.004;2023-08-31T02:43:45;3.55;;;2.90;;
15153;SDS011;7677;41.896;25.004;2023-08-31T02:46:12;3.70;;;2.80;;
15153;SDS011;7677;41.896;25.004;2023-08-31T02:48:39;5.85;;;2.88;;
15153;SDS011;7677;41.896;25.004;2023-08-31T02:51:07;3.42;;;2.58;;
15153;SDS011;7677;41.896;25.004;2023-08-31T02:53:34;2.97;;;2.67;;
15153;SDS011;7677;41.896;25.004;2023-08-31T02:56:01;3.22;;;2.15;;
15153;SDS011;7677;41.896;25.004;2023-08-31T02:58:28;4.65;;;2.50;;
15153;SDS011;7677;41.896;25.004;2023-08-31T03:01:05;8.00;;;2.92;;
15153;SDS011;7677;41.896;25.004;2023-08-31T03:03:34;4.10;;;2.53;;
15153;SDS011;7677;41.896;25.004;2023-08-31T03:06:02;3.30;;;2.67;;
15153;SDS011;7677;41.896;25.004;2023-08-31T03:08:30;5.47;;;2.78;;
15153;SDS011;7677;41.896;25.004;2023-08-31T03:10:57;3.30;;;2.55;;
15153;SDS011;7677;41.896;25.004;2023-08-31T03:13:25;2.83;;;2.40;;
15153;SDS011;7677;41.896;25.004;2023-08-31T03:15:52;6.20;;;2.83;;
15153;SDS011;7677;41.896;25.004;2023-08-31T03:18:19;2.90;;;2.53;;
15153;SDS011;7677;41.896;25.004;2023-08-31T03:20:46;5.05;;;2.80;;
15153;SDS011;7677;41.896;25.004;2023-08-31T03:23:13;4.05;;;2.72;;
15153;SDS011;7677;41.896;25.004;2023-08-31T03:25:41;5.50;;;2.80;;
15153;SDS011;7677;41.896;25.004;2023-08-31T03:28:08;4.00;;;2.90;;
15153;SDS011;7677;41.896;25.004;2023-08-31T03:30:36;3.05;;;2.50;;
15153;SDS011;7677;41.896;25.004;2023-08-31T03:33:03;3.03;;;2.35;;
15153;SDS011;7677;41.896;25.004;2023-08-31T03:35:31;4.15;;;2.33;;
15153;SDS011;7677;41.896;25.004;2023-08-31T03:37:58;2.30;;;2.10;;
15153;SDS011;7677;41.896;25.004;2023-08-31T03:40:26;3.13;;;2.35;;
15153;SDS011;7677;41.896;25.004;2023-08-31T03:42:54;3.10;;;2.25;;
15153;SDS011;7677;41.896;25.004;2023-08-31T03:45:21;2.65;;;2.28;;
15153;SDS011;7677;41.896;25.004;2023-08-31T03:47:48;3.88;;;2.85;;
15153;SDS011;7677;41.896;25.004;2023-08-31T03:50:15;5.82;;;2.60;;
15153;SDS011;7677;41.896;25.004;2023-08-31T03:52:42;4.40;;;2.72;;
15153;SDS011;7677;41.896;25.004;2023-08-31T03:55:09;3.85;;;2.65;;
15153;SDS011;7677;41.896;25.004;2023-08-31T03:57:36;3.92;;;2.97;;
15153;SDS011;7677;41.896;25.004;2023-08-31T04:00:06;3.28;;;2.60;;
15153;SDS011;7677;41.896;25.004;2023-08-31T04:02:34;4.13;;;2.30;;
15153;SDS011;7677;41.896;25.004;2023-08-31T04:05:03;2.85;;;2.25;;
15153;SDS011;7677;41.896;25.004;2023-08-31T04:07:30;4.13;;;2.80;;
15153;SDS011;7677;41.896;25.004;2023-08-31T04:09:58;6.03;;;2.47;;
15153;SDS011;7677;41.896;25.004;2023-08-31T04:12:25;2.67;;;2.30;;
15153;SDS011;7677;41.896;25.004;2023-08-31T04:14:54;3.35;;;2.65;;
15153;SDS011;7677;41.896;25.004;2023-08-31T04:17:22;4.97;;;2.42;;
15153;SDS011;7677;41.896;25.004;2023-08-31T04:19:50;3.78;;;2.65;;
15153;SDS011;7677;41.896;25.004;2023-08-31T04:22:17;3.05;;;2.75;;
15153;SDS011;7677;41.896;25.004;2023-08-31T04:24:44;4.22;;;2.30;;
15153;SDS011;7677;41.896;25.004;2023-08-31T04:27:11;5.85;;;2.25;;
15153;SDS011;7677;41.896;25.004;2023-08-31T04:29:38;4.20;;;2.83;;
15153;SDS011;7677;41.896;25.004;2023-08-31T04:32:05;2.60;;;2.40;;
15153;SDS011;7677;41.896;25.004;2023-08-31T04:34:34;4.47;;;2.78;;
15153;SDS011;7677;41.896;25.004;2023-08-31T04:37:01;4.85;;;2.30;;
15153;SDS011;7677;41.896;25.004;2023-08-31T04:39:28;4.70;;;2.15;;
15153;SDS011;7677;41.896;25.004;2023-08-31T04:41:55;3.33;;;2.40;;
15153;SDS011;7677;41.896;25.004;2023-08-31T04:44:22;4.13;;;2.25;;
15153;SDS011;7677;41.896;25.004;2023-08-31T04:46:49;3.83;;;2.17;;
15153;SDS011;7677;41.896;25.004;2023-08-31T04:49:16;4.00;;;2.40;;
15153;SDS011;7677;41.896;25.004;2023-08-31T04:51:44;3.60;;;1.98;;
15153;SDS011;7677;41.896;25.004;2023-08-31T04:54:12;3.08;;;1.85;;
15153;SDS011;7677;41.896;25.004;2023-08-31T04:56:39;2.85;;;2.22;;
15153;SDS011;7677;41.896;25.004;2023-08-31T04:59:06;2.22;;;2.03;;
15153;SDS011;7677;41.896;25.004;2023-08-31T05:01:33;6.45;;;2.55;;
15153;SDS011;7677;41.896;25.004;2023-08-31T05:04:00;3.55;;;2.40;;
15153;SDS011;7677;41.896;25.004;2023-08-31T05:06:27;3.20;;;2.20;;
15153;SDS011;7677;41.896;25.004;2023-08-31T05:08:56;2.97;;;2.22;;
15153;SDS011;7677;41.896;25.004;2023-08-31T05:11:23;3.95;;;2.40;;
15153;SDS011;7677;41.896;25.004;2023-08-31T05:13:50;4.55;;;2.10;;
15153;SDS011;7677;41.896;25.004;2023-08-31T05:16:17;3.33;;;2.28;;
15153;SDS011;7677;41.896;25.004;2023-08-31T05:18:44;6.13;;;2.42;;
15153;SDS011;7677;41.896;25.004;2023-08-31T05:21:11;3.15;;;2.28;;
15153;SDS011;7677;41.896;25.004;2023-08-31T05:23:38;4.43;;;2.80;;
15153;SDS011;7677;41.896;25.004;2023-08-31T05:26:06;3.65;;;2.22;;
15153;SDS011;7677;41.896;25.004;2023-08-31T05:28:33;6.32;;;2.80;;
15153;SDS011;7677;41.896;25.004;2023-08-31T05:31:00;4.28;;;2.63;;
15153;SDS011;7677;41.896;25.004;2023-08-31T05:33:28;7.40;;;2.70;;
15153;SDS011;7677;41.896;25.004;2023-08-31T05:36:00;3.05;;;2.22;;
15153;SDS011;7677;41.896;25.004;2023-08-31T05:38:28;3.22;;;2.50;;
15153;SDS011;7677;41.896;25.004;2023-08-31T05:41:03;5.30;;;2.38;;
15153;SDS011;7677;41.896;25.004;2023-08-31T05:43:33;1.90;;;1.77;;
15153;SDS011;7677;41.896;25.004;2023-08-31T05:46:00;2.35;;;2.15;;
15153;SDS011;7677;41.896;25.004;2023-08-31T05:48:28;4.80;;;2.60;;
15153;SDS011;7677;41.896;25.004;2023-08-31T05:50:55;3.28;;;2.30;;
15153;SDS011;7677;41.896;25.004;2023-08-31T05:53:22;4.80;;;2.30;;
15153;SDS011;7677;41.896;25.004;2023-08-31T05:55:49;4.80;;;2.50;;
15153;SDS011;7677;41.896;25.004;2023-08-31T05:58:16;3.42;;;2.22;;
15153;SDS011;7677;41.896;25.004;2023-08-31T06:00:44;2.28;;;2.05;;
15153;SDS011;7677;41.896;25.004;2023-08-31T06:03:11;3.78;;;2.38;;
15153;SDS011;7677;41.896;25.004;2023-08-31T06:05:38;3.55;;;2.80;;
15153;SDS011;7677;41.896;25.004;2023-08-31T06:08:05;6.68;;;2.58;;
15153;SDS011;7677;41.896;25.004;2023-08-31T06:10:32;3.28;;;2.53;;
15153;SDS011;7677;41.896;25.004;2023-08-31T06:12:59;5.07;;;2.60;;
15153;SDS011;7677;41.896;25.004;2023-08-31T06:15:26;4.68;;;2.40;;
15153;SDS011;7677;41.896;25.004;2023-08-31T06:17:55;6.60;;;2.53;;
15153;SDS011;7677;41.896;25.004;2023-08-31T06:20:22;3.65;;;2.88;;
15153;SDS011;7677;41.896;25.004;2023-08-31T06:22:49;3.92;;;2.78;;
15153;SDS011;7677;41.896;25.004;2023-08-31T06:25:16;7.40;;;3.00;;
15153;SDS011;7677;41.896;25.004;2023-08-31T06:27:44;4.70;;;2.65;;
15153;SDS011;7677;41.896;25.004;2023-08-31T06:30:11;3.25;;;2.63;;
15153;SDS011;7677;41.896;25.004;2023-08-31T06:32:41;3.60;;;2.90;;
15153;SDS011;7677;41.896;25.004;2023-08-31T06:35:10;7.38;;;3.58;;
15153;SDS011;7677;41.896;25.004;2023-08-31T06:37:38;6.78;;;3.80;;
15153;SDS011;7677;41.896;25.004;2023-08-31T06:40:06;11.20;;;6.35;;
15153;SDS011;7677;41.896;25.004;2023-08-31T06:42:34;4.85;;;4.07;;
15153;SDS011;7677;41.896;25.004;2023-08-31T06:45:01;4.72;;;4.07;;
15153;SDS011;7677;41.896;25.004;2023-08-31T06:47:29;4.85;;;3.75;;
15153;SDS011;7677;41.896;25.004;2023-08-31T06:49:56;6.00;;;3.47;;
15153;SDS011;7677;41.896;25.004;2023-08-31T06:52:25;6.18;;;3.58;;
15153;SDS011;7677;41.896;25.004;2023-08-31T06:54:52;6.65;;;3.50;;
15153;SDS011;7677;41.896;25.004;2023-08-31T06:57:20;5.97;;;3.53;;
15153;SDS011;7677;41.896;25.004;2023-08-31T06:59:48;6.25;;;3.55;;
15153;SDS011;7677;41.896;25.004;2023-08-31T07:02:15;4.47;;;3.40;;
15153;SDS011;7677;41.896;25.004;2023-08-31T07:04:44;7.25;;;3.83;;
15153;SDS011;7677;41.896;25.004;2023-08-31T07:07:11;7.35;;;3.60;;
15153;SDS011;7677;41.896;25.004;2023-08-31T07:09:41;4.38;;;3.45;;
15153;SDS011;7677;41.896;25.004;2023-08-31T07:12:09;7.05;;;3.45;;
15153;SDS011;7677;41.896;25.004;2023-08-31T07:14:36;7.05;;;4.40;;
15153;SDS011;7677;41.896;25.004;2023-08-31T07:17:03;5.25;;;3.67;;
15153;SDS011;7677;41.896;25.004;2023-08-31T07:19:30;4.60;;;3.17;;
15153;SDS011;7677;41.896;25.004;2023-08-31T07:21:57;5.63;;;3.30;;
15153;SDS011;7677;41.896;25.004;2023-08-31T07:24:24;5.70;;;3.35;;
15153;SDS011;7677;41.896;25.004;2023-08-31T07:26:53;4.95;;;3.05;;
15153;SDS011;7677;41.896;25.004;2023-08-31T07:29:20;6.13;;;3.38;;
15153;SDS011;7677;41.896;25.004;2023-08-31T07:31:47;6.50;;;3.45;;
15153;SDS011;7677;41.896;25.004;2023-08-31T07:34:14;5.75;;;3.55;;
15153;SDS011;7677;41.896;25.004;2023-08-31T07:36:41;5.57;;;3.35;;
15153;SDS011;7677;41.896;25.004;2023-08-31T07:39:09;5.32;;;3.05;;
15153;SDS011;7677;41.896;25.004;2023-08-31T07:41:36;6.05;;;3.60;;
15153;SDS011;7677;41.896;25.004;2023-08-31T07:44:05;5.10;;;2.97;;
15153;SDS011;7677;41.896;25.004;2023-08-31T07:46:32;4.82;;;3.40;;
15153;SDS011;7677;41.896;25.004;2023-08-31T07:48:59;5.93;;;3.25;;
15153;SDS011;7677;41.896;25.004;2023-08-31T07:51:27;5.90;;;3.30;;
15153;SDS011;7677;41.896;25.004;2023-08-31T07:53:54;4.78;;;2.95;;
15153;SDS011;7677;41.896;25.004;2023-08-31T07:56:21;3.28;;;2.40;;
15153;SDS011;7677;41.896;25.004;2023-08-31T07:58:49;5.22;;;2.95;;
15153;SDS011;7677;41.896;25.004;2023-08-31T08:01:17;5.50;;;2.60;;
15153;SDS011;7677;41.896;25.004;2023-08-31T08:03:44;3.53;;;2.50;;
15153;SDS011;7677;41.896;25.004;2023-08-31T08:06:11;6.15;;;2.60;;
15153;SDS011;7677;41.896;25.004;2023-08-31T08:08:39;8.20;;;3.05;;
15153;SDS011;7677;41.896;25.004;2023-08-31T08:11:06;4.63;;;2.60;;
15153;SDS011;7677;41.896;25.004;2023-08-31T08:13:33;3.50;;;2.95;;
15153;SDS011;7677;41.896;25.004;2023-08-31T08:16:00;7.15;;;3.63;;
15153;SDS011;7677;41.896;25.004;2023-08-31T08:18:29;5.65;;;2.35;;
15153;SDS011;7677;41.896;25.004;2023-08-31T08:20:56;7.22;;;2.80;;
15153;SDS011;7677;41.896;25.004;2023-08-31T08:23:23;4.28;;;2.90;;
15153;SDS011;7677;41.896;25.004;2023-08-31T08:25:50;4.32;;;2.88;;
15153;SDS011;7677;41.896;25.004;2023-08-31T08:28:17;4.28;;;2.42;;
15153;SDS011;7677;41.896;25.004;2023-08-31T08:30:44;4.35;;;2.55;;
15153;SDS011;7677;41.896;25.004;2023-08-31T08:33:11;3.95;;;2.15;;
15153;SDS011;7677;41.896;25.004;2023-08-31T08:35:39;4.22;;;2.42;;
15153;SDS011;7677;41.896;25.004;2023-08-31T08:38:06;3.15;;;2.20;;
15153;SDS011;7677;41.896;25.004;2023-08-31T08:40:34;2.97;;;2.03;;
15153;SDS011;7677;41.896;25.004;2023-08-31T08:43:01;3.20;;;2.67;;
15153;SDS011;7677;41.896;25.004;2023-08-31T08:45:30;4.50;;;2.15;;
15153;SDS011;7677;41.896;25.004;2023-08-31T08:48:01;3.53;;;2.13;;
15153;SDS011;7677;41.896;25.004;2023-08-31T08:50:29;4.22;;;2.30;;
15153;SDS011;7677;41.896;25.004;2023-08-31T08:53:00;4.68;;;2.28;;
15153;SDS011;7677;41.896;25.004;2023-08-31T08:55:28;6.30;;;3.30;;
15153;SDS011;7677;41.896;25.004;2023-08-31T08:57:55;4.13;;;2.92;;
15153;SDS011;7677;41.896;25.004;2023-08-31T09:00:22;7.22;;;2.95;;
15153;SDS011;7677;41.896;25.004;2023-08-31T09:02:49;4.15;;;1.98;;
15153;SDS011;7677;41.896;25.004;2023-08-31T09:05:16;2.78;;;2.25;;
15153;SDS011;7677;41.896;25.004;2023-08-31T09:08:04;5.70;;;2.30;;
15153;SDS011;7677;41.896;25.004;2023-08-31T09:10:35;3.45;;;2.10;;
15153;SDS011;7677;41.896;25.004;2023-08-31T09:13:06;6.63;;;2.00;;
15153;SDS011;7677;41.896;25.004;2023-08-31T09:15:41;4.82;;;2.20;;
15153;SDS011;7677;41.896;25.004;2023-08-31T09:18:14;3.90;;;1.60;;
15153;SDS011;7677;41.896;25.004;2023-08-31T09:20:42;3.67;;;2.00;;
15153;SDS011;7677;41.896;25.004;2023-08-31T09:23:12;3.58;;;1.98;;
15153;SDS011;7677;41.896;25.004;2023-08-31T09:25:42;4.47;;;2.33;;
15153;SDS011;7677;41.896;25.004;2023-08-31T09:28:11;4.82;;;2.45;;
15153;SDS011;7677;41.896;25.004;2023-08-31T09:30:38;4.95;;;2.45;;
15153;SDS011;7677;41.896;25.004;2023-08-31T09:33:06;4.18;;;2.53;;
15153;SDS011;7677;41.896;25.004;2023-08-31T09:35:38;6.72;;;2.50;;
15153;SDS011;7677;41.896;25.004;2023-08-31T09:38:07;5.43;;;2.33;;
15153;SDS011;7677;41.896;25.004;2023-08-31T09:40:37;2.47;;;1.77;;
15153;SDS011;7677;41.896;25.004;2023-08-31T09:43:04;2.75;;;2.00;;
15153;SDS011;7677;41.896;25.004;2023-08-31T09:45:31;2.22;;;1.83;;
15153;SDS011;7677;41.896;25.004;2023-08-31T09:47:59;4.75;;;2.00;;
15153;SDS011;7677;41.896;25.004;2023-08-31T09:50:28;2.72;;;1.70;;
15153;SDS011;7677;41.896;25.004;2023-08-31T09:52:56;2.03;;;1.67;;
15153;SDS011;7677;41.896;25.004;2023-08-31T09:55:29;5.15;;;1.80;;
15153;SDS011;7677;41.896;25.004;2023-08-31T09:57:58;4.15;;;2.00;;
15153;SDS011;7677;41.896;25.004;2023-08-31T10:00:27;2.30;;;1.60;;
15153;SDS011;7677;41.896;25.004;2023-08-31T10:02:56;2.58;;;2.00;;
15153;SDS011;7677;41.896;25.004;2023-08-31T10:05:24;2.40;;;1.70;;
15153;SDS011;7677;41.896;25.004;2023-08-31T10:07:51;2.60;;;2.10;;
15153;SDS011;7677;41.896;25.004;2023-08-31T10:10:18;5.03;;;2.50;;
15153;SDS011;7677;41.896;25.004;2023-08-31T10:12:47;3.50;;;2.38;;
15153;SDS011;7677;41.896;25.004;2023-08-31T10:15:17;2.63;;;2.10;;
15153;SDS011;7677;41.896;25.004;2023-08-31T10:17:44;2.47;;;1.60;;
15153;SDS011;7677;41.896;25.004;2023-08-31T10:20:12;2.92;;;1.75;;
15153;SDS011;7677;41.896;25.004;2023-08-31T10:22:41;2.75;;;1.90;;
15153;SDS011;7677;41.896;25.004;2023-08-31T10:25:08;5.28;;;2.15;;
15153;SDS011;7677;41.896;25.004;2023-08-31T10:27:37;2.20;;;1.50;;
15153;SDS011;7677;41.896;25.004;2023-08-31T10:35:50;3.85;;;2.20;;
15153;SDS011;7677;41.896;25.004;2023-08-31T10:38:23;4.07;;;1.90;;
15153;SDS011;7677;41.896;25.004;2023-08-31T10:41:01;3.30;;;2.22;;
15153;SDS011;7677;41.896;25.004;2023-08-31T10:43:44;9.13;;;1.95;;
15153;SDS011;7677;41.896;25.004;2023-08-31T10:46:17;4.15;;;2.30;;
15153;SDS011;7677;41.896;25.004;2023-08-31T10:48:51;2.70;;;2.20;;
15153;SDS011;7677;41.896;25.004;2023-08-31T10:51:21;3.90;;;1.60;;
15153;SDS011;7677;41.896;25.004;2023-08-31T10:53:48;2.42;;;2.17;;
15153;SDS011;7677;41.896;25.004;2023-08-31T10:56:16;3.63;;;1.70;;
15153;SDS011;7677;41.896;25.004;2023-08-31T10:58:43;3.13;;;2.08;;
15153;SDS011;7677;41.896;25.004;2023-08-31T11:04:25;4.00;;;2.28;;
15153;SDS011;7677;41.896;25.004;2023-08-31T11:09:49;2.83;;;1.95;;
15153;SDS011;7677;41.896;25.004;2023-08-31T11:12:16;4.30;;;1.92;;
15153;SDS011;7677;41.896;25.004;2023-08-31T11:14:43;2.45;;;2.10;;
15153;SDS011;7677;41.896;25.004;2023-08-31T11:17:12;2.45;;;1.92;;
15153;SDS011;7677;41.896;25.004;2023-08-31T11:19:39;2.28;;;1.67;;
15153;SDS011;7677;41.896;25.004;2023-08-31T11:22:06;4.93;;;2.63;;
15153;SDS011;7677;41.896;25.004;2023-08-31T11:24:35;2.92;;;1.80;;
15153;SDS011;7677;41.896;25.004;2023-08-31T11:27:02;5.20;;;2.55;;
15153;SDS011;7677;41.896;25.004;2023-08-31T11:29:29;11.85;;;2.65;;
15153;SDS011;7677;41.896;25.004;2023-08-31T11:31:57;5.18;;;2.38;;
15153;SDS011;7677;41.896;25.004;2023-08-31T11:34:26;4.18;;;2.25;;
15153;SDS011;7677;41.896;25.004;2023-08-31T11:36:53;3.80;;;2.33;;
15153;SDS011;7677;41.896;25.004;2023-08-31T11:39:21;2.65;;;2.08;;
15153;SDS011;7677;41.896;25.004;2023-08-31T11:41:49;5.18;;;2.45;;
15153;SDS011;7677;41.896;25.004;2023-08-31T11:44:16;2.33;;;1.90;;
15153;SDS011;7677;41.896;25.004;2023-08-31T11:46:44;3.55;;;2.50;;
15153;SDS011;7677;41.896;25.004;2023-08-31T11:49:13;3.25;;;2.40;;
15153;SDS011;7677;41.896;25.004;2023-08-31T11:51:42;4.70;;;2.22;;
15153;SDS011;7677;41.896;25.004;2023-08-31T11:54:09;3.20;;;2.78;;
15153;SDS011;7677;41.896;25.004;2023-08-31T11:56:40;3.75;;;2.03;;
15153;SDS011;7677;41.896;25.004;2023-08-31T11:59:08;3.03;;;2.05;;
15153;SDS011;7677;41.896;25.004;2023-08-31T12:01:37;6.20;;;2.60;;
15153;SDS011;7677;41.896;25.004;2023-08-31T12:04:09;3.35;;;2.15;;
15153;SDS011;7677;41.896;25.004;2023-08-31T12:06:37;5.72;;;2.47;;
15153;SDS011;7677;41.896;25.004;2023-08-31T12:09:06;2.88;;;2.35;;
15153;SDS011;7677;41.896;25.004;2023-08-31T12:11:33;9.00;;;2.42;;
15153;SDS011;7677;41.896;25.004;2023-08-31T12:14:01;2.40;;;2.20;;
15153;SDS011;7677;41.896;25.004;2023-08-31T12:16:32;3.17;;;2.67;;
15153;SDS011;7677;41.896;25.004;2023-08-31T12:19:01;3.10;;;2.08;;
15153;SDS011;7677;41.896;25.004;2023-08-31T12:21:29;4.03;;;2.00;;
15153;SDS011;7677;41.896;25.004;2023-08-31T12:23:57;2.83;;;2.03;;
15153;SDS011;7677;41.896;25.004;2023-08-31T12:26:26;6.00;;;2.70;;
15153;SDS011;7677;41.896;25.004;2023-08-31T12:28:53;2.95;;;2.65;;
15153;SDS011;7677;41.896;25.004;2023-08-31T12:31:21;3.03;;;2.22;;
15153;SDS011;7677;41.896;25.004;2023-08-31T12:33:49;2.97;;;2.40;;
15153;SDS011;7677;41.896;25.004;2023-08-31T12:36:16;3.25;;;1.92;;
15153;SDS011;7677;41.896;25.004;2023-08-31T12:38:43;5.05;;;2.33;;
15153;SDS011;7677;41.896;25.004;2023-08-31T12:41:10;2.97;;;2.30;;
15153;SDS011;7677;41.896;25.004;2023-08-31T12:43:38;4.45;;;2.28;;
15153;SDS011;7677;41.896;25.004;2023-08-31T12:46:05;3.15;;;2.30;;
15153;SDS011;7677;41.896;25.004;2023-08-31T12:48:34;2.88;;;2.20;;
15153;SDS011;7677;41.896;25.004;2023-08-31T12:51:01;2.40;;;2.20;;
15153;SDS011;7677;41.896;25.004;2023-08-31T12:53:28;2.50;;;2.28;;
15153;SDS011;7677;41.896;25.004;2023-08-31T12:55:55;3.55;;;2.38;;
15153;SDS011;7677;41.896;25.004;2023-08-31T12:58:22;4.18;;;3.05;;
15153;SDS011;7677;41.896;25.004;2023-08-31T13:00:51;2.78;;;2.28;;
15153;SDS011;7677;41.896;25.004;2023-08-31T13:03:18;3.67;;;2.67;;
15153;SDS011;7677;41.896;25.004;2023-08-31T13:05:46;3.92;;;2.33;;
15153;SDS011;7677;41.896;25.004;2023-08-31T13:08:14;4.75;;;2.33;;
15153;SDS011;7677;41.896;25.004;2023-08-31T13:10:41;4.82;;;2.20;;
15153;SDS011;7677;41.896;25.004;2023-08-31T13:13:08;2.58;;;1.95;;
15153;SDS011;7677;41.896;25.004;2023-08-31T13:15:35;4.47;;;2.17;;
15153;SDS011;7677;41.896;25.004;2023-08-31T13:18:03;2.67;;;2.10;;
15153;SDS011;7677;41.896;25.004;2023-08-31T13:20:31;4.32;;;2.30;;
15153;SDS011;7677;41.896;25.004;2023-08-31T13:22:58;2.90;;;1.83;;
15153;SDS011;7677;41.896;25.004;2023-08-31T13:25:25;3.10;;;2.35;;
15153;SDS011;7677;41.896;25.004;2023-08-31T13:27:52;2.55;;;2.20;;
15153;SDS011;7677;41.896;25.004;2023-08-31T13:30:19;2.47;;;2.28;;
15153;SDS011;7677;41.896;25.004;2023-08-31T13:32:46;4.65;;;2.30;;
15153;SDS011;7677;41.896;25.004;2023-08-31T13:35:14;4.15;;;2.55;;
15153;SDS011;7677;41.896;25.004;2023-08-31T13:37:41;5.53;;;2.40;;
15153;SDS011;7677;41.896;25.004;2023-08-31T13:40:08;3.33;;;2.28;;
15153;SDS011;7677;41.896;25.004;2023-08-31T13:42:36;4.63;;;2.28;;
15153;SDS011;7677;41.896;25.004;2023-08-31T13:45:05;4.70;;;2.55;;
15153;SDS011;7677;41.896;25.004;2023-08-31T13:47:33;3.22;;;2.38;;
15153;SDS011;7677;41.896;25.004;2023-08-31T13:50:00;4.10;;;2.47;;
15153;SDS011;7677;41.896;25.004;2023-08-31T13:52:30;4.55;;;2.38;;
15153;SDS011;7677;41.896;25.004;2023-08-31T13:54:57;4.22;;;2.40;;
15153;SDS011;7677;41.896;25.004;2023-08-31T13:57:24;3.70;;;2.30;;
15153;SDS011;7677;41.896;25.004;2023-08-31T13:59:51;4.57;;;2.60;;
15153;SDS011;7677;41.896;25.004;2023-08-31T14:02:18;3.13;;;2.10;;
15153;SDS011;7677;41.896;25.004;2023-08-31T14:04:45;3.05;;;2.33;;
15153;SDS011;7677;41.896;25.004;2023-08-31T14:07:12;4.65;;;2.67;;
15153;SDS011;7677;41.896;25.004;2023-08-31T14:09:41;3.13;;;2.30;;
15153;SDS011;7677;41.896;25.004;2023-08-31T14:12:08;3.13;;;2.33;;
15153;SDS011;7677;41.896;25.004;2023-08-31T14:14:35;4.07;;;2.17;;
15153;SDS011;7677;41.896;25.004;2023-08-31T14:17:02;2.42;;;1.90;;
15153;SDS011;7677;41.896;25.004;2023-08-31T14:19:29;2.75;;;2.00;;
15153;SDS011;7677;41.896;25.004;2023-08-31T14:21:57;2.80;;;2.20;;
15153;SDS011;7677;41.896;25.004;2023-08-31T14:24:23;3.28;;;2.30;;
15153;SDS011;7677;41.896;25.004;2023-08-31T14:26:52;2.75;;;2.15;;
15153;SDS011;7677;41.896;25.004;2023-08-31T14:29:19;3.53;;;2.45;;
15153;SDS011;7677;41.896;25.004;2023-08-31T14:31:46;4.00;;;2.20;;
15153;SDS011;7677;41.896;25.004;2023-08-31T14:34:13;4.55;;;2.58;;
15153;SDS011;7677;41.896;25.004;2023-08-31T14:36:40;3.47;;;2.20;;
15153;SDS011;7677;41.896;25.004;2023-08-31T14:39:07;3.72;;;2.42;;
15153;SDS011;7677;41.896;25.004;2023-08-31T14:41:34;5.20;;;2.22;;
15153;SDS011;7677;41.896;25.004;2023-08-31T14:44:02;3.67;;;2.20;;
15153;SDS011;7677;41.896;25.004;2023-08-31T14:46:30;3.08;;;2.00;;
15153;SDS011;7677;41.896;25.004;2023-08-31T14:48:57;2.95;;;2.50;;
15153;SDS011;7677;41.896;25.004;2023-08-31T14:51:24;5.18;;;1.98;;
15153;SDS011;7677;41.896;25.004;2023-08-31T14:53:51;2.78;;;2.30;;
15153;SDS011;7677;41.896;25.004;2023-08-31T14:56:18;5.15;;;2.22;;
15153;SDS011;7677;41.896;25.004;2023-08-31T14:58:45;2.55;;;2.10;;
15153;SDS011;7677;41.896;25.004;2023-08-31T15:01:13;2.75;;;2.22;;
15153;SDS011;7677;41.896;25.004;2023-08-31T15:03:40;2.75;;;2.33;;